Observations for CAMBRIDGE, United Kingdom (EGSC)

EGSC 201750Z 20008KT CAVOK 10/04 Q1019  
EGSC 201720Z 21009KT CAVOK 10/04 Q1019  
EGSC 201650Z 22010KT 9999 FEW032 11/05 Q1019
EGSC 201620Z 22010KT 9999 FEW032 11/05 Q1019
EGSC 201550Z 22012KT 9999 SCT032 12/05 Q1019
EGSC 201520Z 22013KT 9999 SCT032 12/05 Q1019
EGSC 201450Z 23014KT 9999 SCT031 12/05 Q1019
EGSC 201420Z 23013KT 9999 BKN032 12/05 Q1019
EGSC 201350Z 24015KT 9999 BKN029 12/05 Q1019
EGSC 201320Z 22013KT 190V250 9999 BKN029 12/05 Q1019
EGSC 201250Z 23016KT 9999 SCT026 12/05 Q1019
EGSC 201220Z 23016KT 9999 BKN024 11/05 Q1019
EGSC 201150Z 21011KT 9999 SCT023 12/06 Q1019
EGSC 201120Z 21012KT 190V250 9999 FEW018 11/06 Q1019
EGSC 201050Z 22014KT 9999 SCT018 10/06 Q1019
EGSC 201020Z 21014KT 180V240 9999 SCT017 10/06 Q1018
EGSC 200950Z 21012KT 180V240 9999 FEW019 10/06 Q1018
EGSC 200920Z 21011KT 9999 FEW019 09/06 Q1018
EGSC 200850Z 20011KT 9999 FEW019 09/06 Q1018
EGSC 200820Z 20011KT 9999 FEW019 09/06 Q1018
EGSC 200750Z 21009KT 9999 FEW019 08/06 Q1017